Yazd, Iran
Current Conditions -  °F | °C
As of 1:00 PM on Wednesday 22 Oct 2014 (Local Time) from OIYY Reporting Station
Clear Clear  
Wind Chill: 72°   Ceiling: Unl
Heat Index: 72°   Visibility: 6mi
Dew Point: 36°   Wind: 12mph
Humidity: 27%   Direction: 310°NW
Pressure: 30.09"   Gusts: NA
Location:  31.92°N, 54.37°E
Report Text: OIYY 220900Z 31010KT CAVOK 22/02 Q1019
Loading
Personal Weather Stations






























Interactive Weather Map
Tropical Storm Tracking
New forecast layout! Learn more

10-Day Weather Forecast

Advertisements
Track Severe Weather on mobile